St Cloud Regional Airport
KSTC : rendu visible

Aérodrome :











RETROUVEZ-NOUS SUR...

 
LOGIN :

S'inscrire | Disclaimer

   EN    FR    IT 

 









Légende :    VFR   VFR Marginal   IFR   IFR Intensif   IFR Très Intensif
Visi : 
Plafond : 
>= 8 km
>= 3000ft
5 à 8 km
1000 à 3000 ft
1500m à 5 km
500 à 1000 ft
800 à 1500m
200 à 500 ft
< 800m
< 200 ft
Symboles :   Orages  Brouillard  Fortes neiges  Fortes précipitations  Vent > 20 kt






- Altitude de l'aérodrome : 1031 ft
- Code IATA : STC


KSTC - St Cloud Regional

DERNIER METAR :
  • 211553Z 33015G21KT 10SM OVC017 01/M02 A2992 RMK AO2 SNB15E26 SLP149 P0000 T00061017

METARs EXPIRÉS :
  • 211453Z 34012G23KT 10SM BKN015 BKN028 OVC036 01/M02 A2989 RMK AO2 SNE46 SLP139 P0000 60003 T00061017 53042
  • 211353Z 34014G25KT 8SM -SN BKN016 OVC022 01/M01 A2984 RMK AO2 PK WND 34026/1336 SNE35B51 SLP122 P0001 T00061011
  • 211242Z 34012G20KT 2 1/2SM -SN BR SCT009 OVC016 01/M01 A2980 RMK AO2 P0002 T00061006 $

TAF KSTC
Valide du 21 à 13h jusqu'au 22 à 12h UTC


211301Z 2113/2212 34014G24KT 4SM -SN SCT009 OVC015
TEMPO 2113/2115 2SM -SN BR OVC009
FM211500 33019G28KT P6SM OVC015
FM211900 32016G24KT P6SM SKC
FM220200 31009KT P6SM SKC
FM220700 30004KT P6SM SKC



MET'MAP, la Météo Aéronautique d'un coup d'oeil ! - Copyright ORBIFLY Décembre 2007 - Disclaimer

ORBIFLY MET'MAP TEAM :

Programmation & Développement : Alexandra Zaïnal
Conception & Développement : Baudouin d'Aumeries
Co-Programmation & Développement : Marc-Olivier Méhu
Soutien technique & logistique : Manuel Goepfert

Contact : metmap@orbifly.com




SOURCES & CREDITS :

   NOAA       Earth
Advisory